sensor_id;sensor_type;location;lat;lon;timestamp;pressure;altitude;pressure_sealevel;temperature;humidity
7407;BME280;3745;56.964;24.128;2023-02-28T00:00:12;102618.25;;;0.41;100.00
7407;BME280;3745;56.964;24.128;2023-02-28T00:02:40;102575.91;;;0.31;100.00
7407;BME280;3745;56.964;24.128;2023-02-28T00:05:08;102587.88;;;0.35;100.00
7407;BME280;3745;56.964;24.128;2023-02-28T00:07:34;102604.06;;;0.50;100.00
7407;BME280;3745;56.964;24.128;2023-02-28T00:10:00;102547.25;;;0.06;100.00
7407;BME280;3745;56.964;24.128;2023-02-28T00:12:26;102595.38;;;0.45;100.00
7407;BME280;3745;56.964;24.128;2023-02-28T00:14:52;102526.84;;;0.00;100.00
7407;BME280;3745;56.964;24.128;2023-02-28T00:17:18;102594.59;;;0.36;100.00
7407;BME280;3745;56.964;24.128;2023-02-28T00:19:50;102603.03;;;0.28;100.00
7407;BME280;3745;56.964;24.128;2023-02-28T00:22:18;102598.56;;;0.24;100.00
7407;BME280;3745;56.964;24.128;2023-02-28T00:24:45;102600.41;;;0.17;100.00
7407;BME280;3745;56.964;24.128;2023-02-28T00:27:11;102594.28;;;0.13;100.00
7407;BME280;3745;56.964;24.128;2023-02-28T00:29:37;102533.50;;;-0.19;100.00
7407;BME280;3745;56.964;24.128;2023-02-28T00:32:03;102435.34;;;-0.82;100.00
7407;BME280;3745;56.964;24.128;2023-02-28T00:34:29;102565.53;;;-0.04;100.00
7407;BME280;3745;56.964;24.128;2023-02-28T00:36:55;102530.59;;;-0.34;100.00
7407;BME280;3745;56.964;24.128;2023-02-28T00:39:21;102559.16;;;-0.10;100.00
7407;BME280;3745;56.964;24.128;2023-02-28T00:41:46;102494.47;;;-0.59;100.00
7407;BME280;3745;56.964;24.128;2023-02-28T00:44:12;102572.06;;;-0.14;100.00
7407;BME280;3745;56.964;24.128;2023-02-28T00:46:38;102546.44;;;-0.23;100.00
7407;BME280;3745;56.964;24.128;2023-02-28T00:49:03;102578.81;;;-0.13;100.00
7407;BME280;3745;56.964;24.128;2023-02-28T00:51:29;102574.09;;;-0.10;100.00
7407;BME280;3745;56.964;24.128;2023-02-28T00:53:55;102571.81;;;-0.17;100.00
7407;BME280;3745;56.964;24.128;2023-02-28T00:56:20;102478.16;;;-0.66;100.00
7407;BME280;3745;56.964;24.128;2023-02-28T00:58:46;102546.91;;;-0.27;100.00
7407;BME280;3745;56.964;24.128;2023-02-28T01:01:11;102565.09;;;-0.18;100.00
7407;BME280;3745;56.964;24.128;2023-02-28T01:03:37;102573.06;;;-0.22;100.00
7407;BME280;3745;56.964;24.128;2023-02-28T01:06:04;102568.06;;;-0.22;100.00
7407;BME280;3745;56.964;24.128;2023-02-28T01:08:29;102543.25;;;-0.41;100.00
7407;BME280;3745;56.964;24.128;2023-02-28T01:10:55;102551.25;;;-0.35;100.00
7407;BME280;3745;56.964;24.128;2023-02-28T01:13:21;102562.84;;;-0.25;100.00
7407;BME280;3745;56.964;24.128;2023-02-28T01:15:53;102503.78;;;-0.57;100.00
7407;BME280;3745;56.964;24.128;2023-02-28T01:18:20;102490.13;;;-0.62;100.00
7407;BME280;3745;56.964;24.128;2023-02-28T01:20:46;102543.69;;;-0.26;100.00
7407;BME280;3745;56.964;24.128;2023-02-28T01:23:12;102544.16;;;-0.30;100.00
7407;BME280;3745;56.964;24.128;2023-02-28T01:25:38;102554.88;;;-0.21;100.00
7407;BME280;3745;56.964;24.128;2023-02-28T01:28:04;102547.66;;;-0.28;100.00
7407;BME280;3745;56.964;24.128;2023-02-28T01:30:31;102510.00;;;-0.62;100.00
7407;BME280;3745;56.964;24.128;2023-02-28T01:32:57;102546.63;;;-0.40;100.00
7407;BME280;3745;56.964;24.128;2023-02-28T01:35:23;102522.69;;;-0.59;100.00
7407;BME280;3745;56.964;24.128;2023-02-28T01:37:48;102534.41;;;-0.47;100.00
7407;BME280;3745;56.964;24.128;2023-02-28T01:40:14;102504.66;;;-0.56;100.00
7407;BME280;3745;56.964;24.128;2023-02-28T01:42:40;102555.84;;;-0.29;100.00
7407;BME280;3745;56.964;24.128;2023-02-28T01:45:25;102559.06;;;-0.30;100.00
7407;BME280;3745;56.964;24.128;2023-02-28T01:47:54;102557.25;;;-0.23;100.00
7407;BME280;3745;56.964;24.128;2023-02-28T01:50:25;102560.84;;;-0.29;100.00
7407;BME280;3745;56.964;24.128;2023-02-28T01:52:56;102512.50;;;-0.51;100.00
7407;BME280;3745;56.964;24.128;2023-02-28T01:55:25;102508.03;;;-0.45;100.00
7407;BME280;3745;56.964;24.128;2023-02-28T01:57:57;102505.34;;;-0.38;100.00
7407;BME280;3745;56.964;24.128;2023-02-28T02:00:25;102541.72;;;-0.20;100.00
7407;BME280;3745;56.964;24.128;2023-02-28T02:02:57;102480.19;;;-0.51;100.00
7407;BME280;3745;56.964;24.128;2023-02-28T02:05:27;102550.19;;;-0.08;100.00
7407;BME280;3745;56.964;24.128;2023-02-28T02:08:01;102548.59;;;-0.08;100.00
7407;BME280;3745;56.964;24.128;2023-02-28T02:10:35;102536.25;;;-0.06;100.00
7407;BME280;3745;56.964;24.128;2023-02-28T02:35:26;102508.56;;;-0.01;100.00
7407;BME280;3745;56.964;24.128;2023-02-28T02:41:12;102528.38;;;0.18;100.00
7407;BME280;3745;56.964;24.128;2023-02-28T02:43:52;102530.09;;;0.19;100.00
7407;BME280;3745;56.964;24.128;2023-02-28T02:46:25;102530.34;;;0.22;100.00
7407;BME280;3745;56.964;24.128;2023-02-28T02:48:54;102522.38;;;0.26;100.00
7407;BME280;3745;56.964;24.128;2023-02-28T02:51:23;102515.16;;;0.29;100.00
7407;BME280;3745;56.964;24.128;2023-02-28T02:54:08;102516.41;;;0.34;100.00
7407;BME280;3745;56.964;24.128;2023-02-28T02:56:36;102492.75;;;0.19;100.00
7407;BME280;3745;56.964;24.128;2023-02-28T02:59:08;102520.41;;;0.32;100.00
7407;BME280;3745;56.964;24.128;2023-02-28T03:01:36;102515.91;;;0.28;100.00
7407;BME280;3745;56.964;24.128;2023-02-28T03:04:16;102499.34;;;0.19;100.00
7407;BME280;3745;56.964;24.128;2023-02-28T03:06:43;102511.69;;;0.37;100.00
7407;BME280;3745;56.964;24.128;2023-02-28T03:09:08;102510.19;;;0.39;100.00
7407;BME280;3745;56.964;24.128;2023-02-28T03:11:35;102520.91;;;0.48;100.00
7407;BME280;3745;56.964;24.128;2023-02-28T03:24:32;102507.06;;;0.72;100.00
7407;BME280;3745;56.964;24.128;2023-02-28T03:33:10;102490.59;;;0.74;100.00
7407;BME280;3745;56.964;24.128;2023-02-28T03:35:59;102490.50;;;0.83;100.00
7407;BME280;3745;56.964;24.128;2023-02-28T03:38:47;102392.94;;;0.26;100.00
7407;BME280;3745;56.964;24.128;2023-02-28T03:41:32;102448.91;;;0.62;100.00
7407;BME280;3745;56.964;24.128;2023-02-28T03:44:10;102477.66;;;0.78;100.00
7407;BME280;3745;56.964;24.128;2023-02-28T03:46:52;102433.72;;;0.59;100.00
7407;BME280;3745;56.964;24.128;2023-02-28T03:49:26;102448.16;;;0.73;100.00
7407;BME280;3745;56.964;24.128;2023-02-28T03:51:54;102294.91;;;-0.06;100.00
7407;BME280;3745;56.964;24.128;2023-02-28T03:54:48;102471.50;;;0.95;100.00
7407;BME280;3745;56.964;24.128;2023-02-28T03:57:43;102435.19;;;0.77;100.00
7407;BME280;3745;56.964;24.128;2023-02-28T04:00:21;102470.72;;;1.06;100.00
7407;BME280;3745;56.964;24.128;2023-02-28T04:02:49;102459.00;;;1.05;100.00
7407;BME280;3745;56.964;24.128;2023-02-28T04:05:19;102451.00;;;1.09;100.00
7407;BME280;3745;56.964;24.128;2023-02-28T04:07:45;102445.28;;;1.10;100.00
7407;BME280;3745;56.964;24.128;2023-02-28T04:10:12;102434.53;;;1.11;100.00
7407;BME280;3745;56.964;24.128;2023-02-28T04:12:38;102430.03;;;1.17;100.00
7407;BME280;3745;56.964;24.128;2023-02-28T04:15:04;102327.38;;;0.58;100.00
7407;BME280;3745;56.964;24.128;2023-02-28T04:17:30;102375.41;;;0.77;100.00
7407;BME280;3745;56.964;24.128;2023-02-28T04:19:56;102421.09;;;1.09;100.00
7407;BME280;3745;56.964;24.128;2023-02-28T04:22:22;102396.22;;;0.99;100.00
7407;BME280;3745;56.964;24.128;2023-02-28T04:24:51;102384.78;;;0.91;100.00
7407;BME280;3745;56.964;24.128;2023-02-28T04:27:16;102341.53;;;0.69;100.00
7407;BME280;3745;56.964;24.128;2023-02-28T04:29:42;102418.56;;;1.19;100.00
7407;BME280;3745;56.964;24.128;2023-02-28T04:32:10;102397.69;;;1.07;100.00
7407;BME280;3745;56.964;24.128;2023-02-28T04:34:36;102401.16;;;1.09;100.00
7407;BME280;3745;56.964;24.128;2023-02-28T04:37:01;102410.09;;;1.17;100.00
7407;BME280;3745;56.964;24.128;2023-02-28T04:39:28;102421.03;;;1.29;100.00
7407;BME280;3745;56.964;24.128;2023-02-28T04:41:55;102404.41;;;1.30;100.00
7407;BME280;3745;56.964;24.128;2023-02-28T04:44:21;102414.75;;;1.34;100.00
7407;BME280;3745;56.964;24.128;2023-02-28T04:46:48;102302.38;;;0.78;100.00
7407;BME280;3745;56.964;24.128;2023-02-28T04:49:14;102340.63;;;1.00;100.00
7407;BME280;3745;56.964;24.128;2023-02-28T04:51:39;102401.38;;;1.44;100.00
7407;BME280;3745;56.964;24.128;2023-02-28T04:54:05;102388.31;;;1.36;100.00
7407;BME280;3745;56.964;24.128;2023-02-28T04:56:31;102369.63;;;1.31;100.00
7407;BME280;3745;56.964;24.128;2023-02-28T04:58:57;102399.66;;;1.54;100.00
7407;BME280;3745;56.964;24.128;2023-02-28T05:01:26;102395.53;;;1.55;100.00
7407;BME280;3745;56.964;24.128;2023-02-28T05:03:54;102285.81;;;1.00;100.00
7407;BME280;3745;56.964;24.128;2023-02-28T05:06:21;102347.44;;;1.34;100.00
7407;BME280;3745;56.964;24.128;2023-02-28T05:08:49;102389.03;;;1.57;100.00
7407;BME280;3745;56.964;24.128;2023-02-28T05:11:20;102336.47;;;1.32;100.00
7407;BME280;3745;56.964;24.128;2023-02-28T05:13:47;102383.66;;;1.62;100.00
7407;BME280;3745;56.964;24.128;2023-02-28T05:16:13;102314.56;;;1.28;100.00
7407;BME280;3745;56.964;24.128;2023-02-28T05:18:39;102332.19;;;1.41;100.00
7407;BME280;3745;56.964;24.128;2023-02-28T05:21:04;102333.44;;;1.36;100.00
7407;BME280;3745;56.964;24.128;2023-02-28T05:23:30;102382.13;;;1.64;100.00
7407;BME280;3745;56.964;24.128;2023-02-28T05:25:56;102358.03;;;1.53;100.00
7407;BME280;3745;56.964;24.128;2023-02-28T05:28:22;102385.59;;;1.67;100.00
7407;BME280;3745;56.964;24.128;2023-02-28T05:30:48;102293.91;;;1.19;100.00
7407;BME280;3745;56.964;24.128;2023-02-28T05:33:13;102346.31;;;1.52;100.00
7407;BME280;3745;56.964;24.128;2023-02-28T05:35:40;102334.34;;;1.48;100.00
7407;BME280;3745;56.964;24.128;2023-02-28T05:38:06;102373.06;;;1.77;100.00
7407;BME280;3745;56.964;24.128;2023-02-28T05:40:32;102373.06;;;1.77;100.00
7407;BME280;3745;56.964;24.128;2023-02-28T05:42:57;102347.84;;;1.62;100.00
7407;BME280;3745;56.964;24.128;2023-02-28T05:45:23;102345.00;;;1.57;100.00
7407;BME280;3745;56.964;24.128;2023-02-28T05:47:48;102338.75;;;1.62;100.00
7407;BME280;3745;56.964;24.128;2023-02-28T05:50:14;102378.94;;;1.89;100.00
7407;BME280;3745;56.964;24.128;2023-02-28T05:52:40;102353.09;;;1.77;100.00
7407;BME280;3745;56.964;24.128;2023-02-28T05:55:06;102344.41;;;1.72;100.00
7407;BME280;3745;56.964;24.128;2023-02-28T05:57:31;102345.16;;;1.71;100.00
7407;BME280;3745;56.964;24.128;2023-02-28T05:59:57;102362.22;;;1.88;100.00
7407;BME280;3745;56.964;24.128;2023-02-28T06:02:22;102325.94;;;1.70;100.00
7407;BME280;3745;56.964;24.128;2023-02-28T06:04:48;102340.53;;;1.87;100.00
7407;BME280;3745;56.964;24.128;2023-02-28T06:07:13;102346.72;;;1.92;100.00
7407;BME280;3745;56.964;24.128;2023-02-28T06:09:39;102363.75;;;1.97;100.00
7407;BME280;3745;56.964;24.128;2023-02-28T06:12:06;102324.91;;;1.78;100.00
7407;BME280;3745;56.964;24.128;2023-02-28T06:14:34;102387.47;;;2.14;100.00
7407;BME280;3745;56.964;24.128;2023-02-28T06:17:00;102344.22;;;1.92;100.00
7407;BME280;3745;56.964;24.128;2023-02-28T06:19:26;102333.06;;;1.87;100.00
7407;BME280;3745;56.964;24.128;2023-02-28T06:21:53;102299.94;;;1.78;100.00
7407;BME280;3745;56.964;24.128;2023-02-28T06:24:20;102376.84;;;2.28;100.00
7407;BME280;3745;56.964;24.128;2023-02-28T06:26:46;102378.38;;;2.26;100.00
7407;BME280;3745;56.964;24.128;2023-02-28T06:29:12;102372.06;;;2.31;100.00
7407;BME280;3745;56.964;24.128;2023-02-28T06:31:43;102349.72;;;2.21;100.00
7407;BME280;3745;56.964;24.128;2023-02-28T06:34:09;102360.78;;;2.36;100.00
7407;BME280;3745;56.964;24.128;2023-02-28T06:36:49;102284.75;;;1.98;100.00
7407;BME280;3745;56.964;24.128;2023-02-28T06:39:16;102351.22;;;2.42;100.00
7407;BME280;3745;56.964;24.128;2023-02-28T06:41:42;102353.72;;;2.42;100.00
7407;BME280;3745;56.964;24.128;2023-02-28T06:44:16;102320.38;;;2.30;100.00
7407;BME280;3745;56.964;24.128;2023-02-28T06:46:43;102309.75;;;2.21;100.00
7407;BME280;3745;56.964;24.128;2023-02-28T06:49:10;102341.88;;;2.51;100.00
7407;BME280;3745;56.964;24.128;2023-02-28T06:51:40;102340.34;;;2.53;100.00
7407;BME280;3745;56.964;24.128;2023-02-28T06:54:10;102247.44;;;2.11;100.00
7407;BME280;3745;56.964;24.128;2023-02-28T06:56:36;102347.53;;;2.60;100.00
7407;BME280;3745;56.964;24.128;2023-02-28T06:59:03;102342.75;;;2.63;100.00
7407;BME280;3745;56.964;24.128;2023-02-28T07:01:30;102268.78;;;2.19;100.00
7407;BME280;3745;56.964;24.128;2023-02-28T07:03:57;102301.69;;;2.48;100.00
7407;BME280;3745;56.964;24.128;2023-02-28T07:06:24;102348.38;;;2.72;100.00
7407;BME280;3745;56.964;24.128;2023-02-28T07:08:51;102347.06;;;2.78;100.00
7407;BME280;3745;56.964;24.128;2023-02-28T07:11:19;102336.44;;;3.05;100.00
7407;BME280;3745;56.964;24.128;2023-02-28T07:13:53;102293.03;;;2.91;100.00
7407;BME280;3745;56.964;24.128;2023-02-28T07:16:19;102254.56;;;2.78;100.00
7407;BME280;3745;56.964;24.128;2023-02-28T07:18:44;102247.13;;;2.91;100.00
7407;BME280;3745;56.964;24.128;2023-02-28T07:21:10;102322.75;;;3.36;100.00
7407;BME280;3745;56.964;24.128;2023-02-28T07:23:37;102327.00;;;3.37;100.00
7407;BME280;3745;56.964;24.128;2023-02-28T07:26:04;102309.22;;;3.21;100.00
7407;BME280;3745;56.964;24.128;2023-02-28T07:28:30;102312.31;;;3.30;100.00
7407;BME280;3745;56.964;24.128;2023-02-28T07:30:56;102197.09;;;2.78;100.00
7407;BME280;3745;56.964;24.128;2023-02-28T07:33:22;102292.16;;;3.40;100.00
7407;BME280;3745;56.964;24.128;2023-02-28T07:35:49;102276.00;;;3.35;100.00
7407;BME280;3745;56.964;24.128;2023-02-28T07:38:15;102286.81;;;3.47;100.00
7407;BME280;3745;56.964;24.128;2023-02-28T07:40:41;102280.66;;;3.55;100.00
7407;BME280;3745;56.964;24.128;2023-02-28T07:43:06;102275.53;;;3.54;100.00
7407;BME280;3745;56.964;24.128;2023-02-28T07:45:32;102239.63;;;3.40;100.00
7407;BME280;3745;56.964;24.128;2023-02-28T07:47:59;102261.06;;;3.74;100.00
7407;BME280;3745;56.964;24.128;2023-02-28T07:50:25;102267.41;;;3.82;100.00
7407;BME280;3745;56.964;24.128;2023-02-28T07:52:54;102264.53;;;3.90;100.00
7407;BME280;3745;56.964;24.128;2023-02-28T07:55:19;102254.88;;;3.82;100.00
7407;BME280;3745;56.964;24.128;2023-02-28T07:57:45;102247.75;;;3.89;100.00
7407;BME280;3745;56.964;24.128;2023-02-28T08:00:11;102236.03;;;3.88;100.00
7407;BME280;3745;56.964;24.128;2023-02-28T08:02:38;102190.94;;;3.61;100.00
7407;BME280;3745;56.964;24.128;2023-02-28T08:05:04;102203.66;;;3.77;100.00
7407;BME280;3745;56.964;24.128;2023-02-28T08:07:30;102208.06;;;3.81;100.00
7407;BME280;3745;56.964;24.128;2023-02-28T08:09:56;102251.81;;;4.13;100.00
7407;BME280;3745;56.964;24.128;2023-02-28T08:12:22;102257.00;;;4.16;100.00
7407;BME280;3745;56.964;24.128;2023-02-28T08:14:47;102204.81;;;3.96;100.00
7407;BME280;3745;56.964;24.128;2023-02-28T08:17:13;102253.94;;;4.20;100.00
7407;BME280;3745;56.964;24.128;2023-02-28T08:19:38;102233.78;;;4.18;100.00
7407;BME280;3745;56.964;24.128;2023-02-28T08:22:04;102169.19;;;3.87;100.00
7407;BME280;3745;56.964;24.128;2023-02-28T08:24:30;102191.31;;;4.07;100.00
7407;BME280;3745;56.964;24.128;2023-02-28T08:26:56;102234.06;;;4.36;100.00
7407;BME280;3745;56.964;24.128;2023-02-28T08:29:22;102172.06;;;4.06;100.00
7407;BME280;3745;56.964;24.128;2023-02-28T08:31:47;102206.13;;;4.30;100.00
7407;BME280;3745;56.964;24.128;2023-02-28T08:34:15;102235.19;;;4.54;100.00
7407;BME280;3745;56.964;24.128;2023-02-28T08:36:41;102232.09;;;4.58;100.00
7407;BME280;3745;56.964;24.128;2023-02-28T08:39:08;102210.47;;;4.60;100.00
7407;BME280;3745;56.964;24.128;2023-02-28T08:41:34;102222.97;;;4.73;100.00
7407;BME280;3745;56.964;24.128;2023-02-28T08:44:00;102183.13;;;4.50;100.00
7407;BME280;3745;56.964;24.128;2023-02-28T08:46:25;102155.94;;;4.43;100.00
7407;BME280;3745;56.964;24.128;2023-02-28T08:48:53;102225.59;;;4.89;100.00
7407;BME280;3745;56.964;24.128;2023-02-28T08:51:19;102195.97;;;4.69;100.00
7407;BME280;3745;56.964;24.128;2023-02-28T08:53:52;102134.94;;;4.41;100.00
7407;BME280;3745;56.964;24.128;2023-02-28T08:56:17;102161.91;;;4.58;100.00
7407;BME280;3745;56.964;24.128;2023-02-28T08:58:44;102208.50;;;4.97;100.00
7407;BME280;3745;56.964;24.128;2023-02-28T09:01:16;102128.69;;;4.62;100.00
7407;BME280;3745;56.964;24.128;2023-02-28T09:03:43;102172.69;;;5.00;100.00
7407;BME280;3745;56.964;24.128;2023-02-28T09:06:09;102173.03;;;5.06;100.00
7407;BME280;3745;56.964;24.128;2023-02-28T09:08:36;102161.09;;;5.02;100.00
7407;BME280;3745;56.964;24.128;2023-02-28T09:11:02;102160.09;;;5.13;100.00
7407;BME280;3745;56.964;24.128;2023-02-28T09:13:29;102095.69;;;4.69;100.00
7407;BME280;3745;56.964;24.128;2023-02-28T09:15:58;102185.34;;;5.45;100.00
7407;BME280;3745;56.964;24.128;2023-02-28T09:18:24;102171.84;;;5.43;100.00
7407;BME280;3745;56.964;24.128;2023-02-28T09:20:51;102179.13;;;5.53;100.00
7407;BME280;3745;56.964;24.128;2023-02-28T09:23:20;102158.53;;;5.44;100.00
7407;BME280;3745;56.964;24.128;2023-02-28T09:25:51;102187.00;;;5.59;100.00
7407;BME280;3745;56.964;24.128;2023-02-28T09:28:17;102117.00;;;5.20;100.00
7407;BME280;3745;56.964;24.128;2023-02-28T09:30:48;102176.66;;;5.69;100.00
7407;BME280;3745;56.964;24.128;2023-02-28T09:33:15;102140.09;;;5.43;100.00
7407;BME280;3745;56.964;24.128;2023-02-28T09:35:42;101991.63;;;4.61;100.00
7407;BME280;3745;56.964;24.128;2023-02-28T09:38:09;102012.50;;;4.91;100.00
7407;BME280;3745;56.964;24.128;2023-02-28T09:40:38;102004.72;;;5.01;100.00
7407;BME280;3745;56.964;24.128;2023-02-28T09:43:09;102111.84;;;5.78;100.00
7407;BME280;3745;56.964;24.128;2023-02-28T09:45:57;102036.44;;;5.46;100.00
7407;BME280;3745;56.964;24.128;2023-02-28T09:48:39;102111.69;;;5.90;100.00
7407;BME280;3745;56.964;24.128;2023-02-28T09:53:57;101967.53;;;5.25;100.00
7407;BME280;3745;56.964;24.128;2023-02-28T09:56:28;102121.06;;;6.25;100.00
7407;BME280;3745;56.964;24.128;2023-02-28T09:59:16;102030.81;;;5.66;100.00
7407;BME280;3745;56.964;24.128;2023-02-28T10:04:58;102156.25;;;6.25;100.00
7407;BME280;3745;56.964;24.128;2023-02-28T10:08:03;102166.63;;;6.31;100.00
7407;BME280;3745;56.964;24.128;2023-02-28T10:10:40;102170.16;;;6.18;100.00
7407;BME280;3745;56.964;24.128;2023-02-28T10:13:22;102096.28;;;5.69;100.00
7407;BME280;3745;56.964;24.128;2023-02-28T10:15:53;102168.81;;;6.09;100.00
7407;BME280;3745;56.964;24.128;2023-02-28T10:18:25;102146.84;;;5.75;100.00
7407;BME280;3745;56.964;24.128;2023-02-28T10:20:53;102091.34;;;5.40;100.00
7407;BME280;3745;56.964;24.128;2023-02-28T10:23:34;102151.88;;;5.75;100.00
7407;BME280;3745;56.964;24.128;2023-02-28T10:26:09;102143.66;;;5.78;100.00
7407;BME280;3745;56.964;24.128;2023-02-28T10:28:39;102163.31;;;5.99;100.00
7407;BME280;3745;56.964;24.128;2023-02-28T10:31:11;102152.91;;;5.93;100.00
7407;BME280;3745;56.964;24.128;2023-02-28T10:33:40;102147.50;;;6.02;100.00
7407;BME280;3745;56.964;24.128;2023-02-28T10:36:08;102146.97;;;6.08;100.00
7407;BME280;3745;56.964;24.128;2023-02-28T10:38:38;102146.19;;;6.25;100.00
7407;BME280;3745;56.964;24.128;2023-02-28T10:41:42;102109.28;;;6.24;100.00
7407;BME280;3745;56.964;24.128;2023-02-28T10:44:23;102064.66;;;6.04;100.00
7407;BME280;3745;56.964;24.128;2023-02-28T10:46:49;102017.97;;;5.76;100.00
7407;BME280;3745;56.964;24.128;2023-02-28T10:49:28;102128.16;;;6.64;100.00
7407;BME280;3745;56.964;24.128;2023-02-28T10:51:59;102123.28;;;6.67;100.00
7407;BME280;3745;56.964;24.128;2023-02-28T10:54:33;102126.78;;;6.71;100.00
7407;BME280;3745;56.964;24.128;2023-02-28T10:57:23;102126.41;;;6.63;100.00
7407;BME280;3745;56.964;24.128;2023-02-28T10:59:53;102141.81;;;6.69;100.00
7407;BME280;3745;56.964;24.128;2023-02-28T11:02:33;102117.16;;;6.46;100.00
7407;BME280;3745;56.964;24.128;2023-02-28T11:04:59;102090.56;;;6.19;100.00
7407;BME280;3745;56.964;24.128;2023-02-28T11:07:26;102155.97;;;6.51;100.00
7407;BME280;3745;56.964;24.128;2023-02-28T11:09:54;102169.63;;;6.56;100.00
7407;BME280;3745;56.964;24.128;2023-02-28T11:12:31;102171.06;;;6.67;100.00
7407;BME280;3745;56.964;24.128;2023-02-28T11:15:02;102150.69;;;6.63;100.00
7407;BME280;3745;56.964;24.128;2023-02-28T11:17:32;102159.88;;;6.62;100.00
7407;BME280;3745;56.964;24.128;2023-02-28T11:20:02;102129.25;;;6.53;100.00
7407;BME280;3745;56.964;24.128;2023-02-28T11:22:32;102094.03;;;6.53;100.00
7407;BME280;3745;56.964;24.128;2023-02-28T11:25:06;102088.75;;;6.65;100.00
7407;BME280;3745;56.964;24.128;2023-02-28T11:30:00;102120.69;;;6.99;100.00
7407;BME280;3745;56.964;24.128;2023-02-28T11:32:30;102102.47;;;6.87;100.00
7407;BME280;3745;56.964;24.128;2023-02-28T11:35:14;102094.16;;;6.88;100.00
7407;BME280;3745;56.964;24.128;2023-02-28T11:37:42;102035.72;;;6.60;100.00
7407;BME280;3745;56.964;24.128;2023-02-28T11:46:23;102108.88;;;6.65;100.00
7407;BME280;3745;56.964;24.128;2023-02-28T11:52:20;102098.72;;;6.79;100.00
7407;BME280;3745;56.964;24.128;2023-02-28T11:54:57;102093.75;;;6.81;100.00
7407;BME280;3745;56.964;24.128;2023-02-28T12:22:40;101994.91;;;6.16;100.00
7407;BME280;3745;56.964;24.128;2023-02-28T12:28:17;102049.50;;;6.68;100.00
7407;BME280;3745;56.964;24.128;2023-02-28T12:31:08;101991.94;;;6.23;100.00
7407;BME280;3745;56.964;24.128;2023-02-28T12:33:40;101839.72;;;5.28;100.00
7407;BME280;3745;56.964;24.128;2023-02-28T12:36:10;102056.09;;;6.48;100.00
7407;BME280;3745;56.964;24.128;2023-02-28T12:41:20;102070.78;;;6.41;100.00
7407;BME280;3745;56.964;24.128;2023-02-28T12:44:00;102042.81;;;6.35;100.00
7407;BME280;3745;56.964;24.128;2023-02-28T12:46:33;102048.56;;;6.32;100.00
7407;BME280;3745;56.964;24.128;2023-02-28T12:51:44;102074.22;;;6.59;100.00
7407;BME280;3745;56.964;24.128;2023-02-28T12:59:27;102048.91;;;6.56;100.00
7407;BME280;3745;56.964;24.128;2023-02-28T13:05:02;102082.78;;;6.96;100.00
7407;BME280;3745;56.964;24.128;2023-02-28T13:10:17;101986.22;;;6.43;100.00
7407;BME280;3745;56.964;24.128;2023-02-28T13:12:51;102018.09;;;6.60;100.00
7407;BME280;3745;56.964;24.128;2023-02-28T13:15:26;102036.72;;;6.64;100.00
7407;BME280;3745;56.964;24.128;2023-02-28T13:17:57;101927.13;;;5.99;100.00
7407;BME280;3745;56.964;24.128;2023-02-28T13:20:26;102007.22;;;6.43;100.00
7407;BME280;3745;56.964;24.128;2023-02-28T13:22:54;102040.75;;;6.60;100.00
7407;BME280;3745;56.964;24.128;2023-02-28T13:28:11;102021.78;;;6.33;100.00
7407;BME280;3745;56.964;24.128;2023-02-28T13:33:34;102024.28;;;6.33;100.00
7407;BME280;3745;56.964;24.128;2023-02-28T13:38:51;102001.69;;;6.17;100.00
7407;BME280;3745;56.964;24.128;2023-02-28T13:44:18;102067.88;;;6.49;100.00
7407;BME280;3745;56.964;24.128;2023-02-28T13:51:50;102066.03;;;6.63;100.00
7407;BME280;3745;56.964;24.128;2023-02-28T13:57:28;102047.66;;;6.64;100.00
7407;BME280;3745;56.964;24.128;2023-02-28T14:05:22;101953.63;;;5.94;100.00
7407;BME280;3745;56.964;24.128;2023-02-28T14:08:02;101816.50;;;5.00;100.00
7407;BME280;3745;56.964;24.128;2023-02-28T14:10:41;102053.34;;;6.44;100.00
7407;BME280;3745;56.964;24.128;2023-02-28T14:13:44;102046.09;;;6.34;100.00
7407;BME280;3745;56.964;24.128;2023-02-28T14:16:14;102052.56;;;6.29;100.00
7407;BME280;3745;56.964;24.128;2023-02-28T14:19:03;102038.59;;;6.18;100.00
7407;BME280;3745;56.964;24.128;2023-02-28T14:21:39;102050.06;;;6.29;100.00
7407;BME280;3745;56.964;24.128;2023-02-28T14:27:47;102040.25;;;6.33;100.00
7407;BME280;3745;56.964;24.128;2023-02-28T14:33:34;102055.25;;;6.16;100.00
7407;BME280;3745;56.964;24.128;2023-02-28T14:36:26;102043.31;;;5.95;100.00
7407;BME280;3745;56.964;24.128;2023-02-28T14:38:57;102063.34;;;5.79;100.00
7407;BME280;3745;56.964;24.128;2023-02-28T14:41:39;102052.97;;;5.73;100.00
7407;BME280;3745;56.964;24.128;2023-02-28T14:44:23;101995.78;;;5.37;100.00
7407;BME280;3745;56.964;24.128;2023-02-28T14:46:52;102074.00;;;5.59;100.00
7407;BME280;3745;56.964;24.128;2023-02-28T14:49:30;102002.78;;;5.12;100.00
7407;BME280;3745;56.964;24.128;2023-02-28T14:52:20;102074.72;;;5.42;100.00
7407;BME280;3745;56.964;24.128;2023-02-28T14:54:53;102013.72;;;4.98;100.00
7407;BME280;3745;56.964;24.128;2023-02-28T14:57:34;101993.47;;;4.95;100.00
7407;BME280;3745;56.964;24.128;2023-02-28T15:00:33;102055.88;;;5.34;100.00
7407;BME280;3745;56.964;24.128;2023-02-28T15:03:00;102031.78;;;5.07;100.00
7407;BME280;3745;56.964;24.128;2023-02-28T15:05:29;102073.88;;;5.27;100.00
7407;BME280;3745;56.964;24.128;2023-02-28T15:08:14;102080.47;;;5.25;100.00
7407;BME280;3745;56.964;24.128;2023-02-28T15:11:02;102040.44;;;4.97;100.00
7407;BME280;3745;56.964;24.128;2023-02-28T15:13:42;102082.19;;;5.11;100.00
7407;BME280;3745;56.964;24.128;2023-02-28T15:16:15;102077.53;;;5.03;100.00
7407;BME280;3745;56.964;24.128;2023-02-28T15:18:59;102007.59;;;4.63;100.00
7407;BME280;3745;56.964;24.128;2023-02-28T15:21:48;102076.50;;;4.99;100.00
7407;BME280;3745;56.964;24.128;2023-02-28T15:24:27;102068.38;;;4.88;100.00
7407;BME280;3745;56.964;24.128;2023-02-28T15:26:58;102086.00;;;4.75;100.00
7407;BME280;3745;56.964;24.128;2023-02-28T15:29:27;102011.63;;;4.32;100.00
7407;BME280;3745;56.964;24.128;2023-02-28T15:32:05;102080.81;;;4.72;100.00